メインページ
METAR-TAF:

METAR-TAF

空港 :

ラバト, モロッコ

ラバト=サレ空港

緯度: 34-03N, 経度: 006-46W, 海抜: 84m

現時点の気象観測

当レポートは27分前の05:30(UTC)に作成
変向風 1kt
気温 22°C
湿度 88%
気圧 1013 hPa
視程: 8000m
高度600ftの雲は散在している

METAR: GMME 200530Z VRB01KT 8000 SCT006 22/20 Q1013 NOSIG

時間: 06:57 (05:57 UTC)

予報

当レポートは57分前の05:00(UTC)に作成
予報は20日の 06時(UTC)から 21日の 12時(UTC)まで有効
西/南西の風 8kt
視程: 6000m
高度1000ftの雲は散在している
20日の 10時(UTC)から 20日の 16時(UTC)まで一時的に
北西の風 8kt
視程10km以上
1,500メートル以下は雲なし、積乱雲なし

TAF: GMME 200500Z 2006/2112 24008KT 6000 SCT010 TEMPO 2010/2016 31008KT CAVOK

4,000以上の空港の気象観測と天気予報(METAR報とTAF報)

利用可能な観測所は地図上に黄色い丸と赤い丸で示す。

丸の上にカーソルを重ねると観測所名を参照できる。

次にクリックすると気象観測と天気予報を参照できる。

マップの切り替え:黒色「×」印の緑ボタンをクリックして拡大、「-」印の緑ボタンをクリックして縮小、緑色の三角印をクリックして隣りの地図に切り替え


METAR-TAF: